Time;durP1;ratioP1;P1;durP2;ratioP2;P2;SDS_P1;SDS_P2;PMS_P1;PMS_P2;Temp;Humidity;BMP_temperature;BMP_pressure;BME280_temperature;BME280_humidity;BME280_pressure;Samples;Min_cycle;Max_cycle;Signal;HPM_P1;HPM_P2
2022/06/19 00:00:44;;;;;;;;;;;;;;;;;;4195129;28;42803;-78
2022/06/19 00:02:46;;;;;;;;;;;;;;;;;;4187754;28;43281;-77
2022/06/19 00:04:48;;;;;;;;;;;;;;;;;;4188417;28;43656;-78
2022/06/19 00:06:50;;;;;;;;;;;;;;;;;;4201571;28;43145;-77
2022/06/19 00:08:52;;;;;;;;;;;;;;;;;;4212904;28;43217;-77
2022/06/19 00:10:54;;;;;;;;;;;;;;;;;;4211060;28;43447;-78
2022/06/19 00:12:56;;;;;;;;;;;;;;;;;;4200215;28;44369;-77
2022/06/19 00:14:58;;;;;;;;;;;;;;;;;;4198273;28;43068;-78
2022/06/19 00:17:00;;;;;;;;;;;;;;;;;;4196814;28;43122;-77
2022/06/19 00:19:03;;;;;;;;;;;;;;;;;;4191655;28;41692;-77
2022/06/19 00:21:05;;;;;;;;;;;;;;;;;;4191161;28;44307;-77
2022/06/19 00:23:07;;;;;;;;;;;;;;;;;;4196145;28;43552;-77
2022/06/19 00:25:09;;;;;;;;;;;;;;;;;;4193228;28;43217;-77
2022/06/19 00:27:11;;;;;;;;;;;;;;;;;;4193686;28;43026;-78
2022/06/19 00:29:13;;;;;;;;;;;;;;;;;;4200406;28;44330;-77
2022/06/19 00:31:15;;;;;;;;;;;;;;;;;;4195859;28;42872;-77
2022/06/19 00:33:17;;;;;;;;;;;;;;;;;;4205419;28;42602;-76
2022/06/19 00:35:19;;;;;;;;;;;;;;;;;;4191484;28;43361;-76
2022/06/19 00:37:21;;;;;;;;;;;;;;;;;;4195087;28;43828;-76
2022/06/19 00:39:24;;;;;;;;;;;;;;;;;;4192922;28;44070;-76
2022/06/19 00:41:26;;;;;;;;;;;;;;;;;;4187522;28;43425;-77
2022/06/19 00:43:28;;;;;;;;;;;;;;;;;;4196376;28;44604;-77
2022/06/19 00:45:30;;;;;;;;;;;;;;;;;;4191287;28;43300;-77
2022/06/19 00:47:34;;;;;;;;;;;;;;;;;;4197989;28;43886;-77
2022/06/19 00:49:36;;;;;;;;;;;;;;;;;;4194038;28;44235;-77
2022/06/19 00:51:38;;;;;;;;;;;;;;;;;;4200131;28;43367;-76
2022/06/19 00:53:40;;;;;;;;;;;;;;;;;;4193959;28;43834;-77
2022/06/19 00:55:43;;;;;;;;;;;;;;;;;;4190147;28;43089;-77
2022/06/19 00:57:45;;;;;;;;;;;;;;;;;;4189834;28;44916;-77
2022/06/19 00:59:47;;;;;;;;;;;;;;;;;;4194765;28;44356;-77
2022/06/19 01:01:49;;;;;;;;;;;;;;;;;;4188169;28;43188;-77
2022/06/19 01:03:51;;;;;;;;;;;;;;;;;;4186697;28;43453;-76
2022/06/19 01:05:53;;;;;;;;;;;;;;;;;;4187906;28;43274;-78
2022/06/19 01:07:55;;;;;;;;;;;;;;;;;;4188560;28;43809;-78
2022/06/19 01:09:57;;;;;;;;;;;;;;;;;;4194040;28;43449;-77
2022/06/19 01:11:59;;;;;;;;;;;;;;;;;;4202042;28;43240;-77
2022/06/19 01:14:02;;;;;;;;;;;;;;;;;;4197293;28;43107;-77
2022/06/19 01:16:04;;;;;;;;;;;;;;;;;;4199330;28;44330;-77
2022/06/19 01:18:06;;;;;;;;;;;;;;;;;;4191126;28;44307;-76
2022/06/19 01:20:08;;;;;;;;;;;;;;;;;;4201300;28;41926;-77
2022/06/19 01:22:10;;;;;;;;;;;;;;;;;;4189958;28;44616;-77
2022/06/19 01:24:12;;;;;;;;;;;;;;;;;;4183471;28;44230;-76
2022/06/19 01:26:14;;;;;;;;;;;;;;;;;;4190578;28;43531;-77
2022/06/19 01:30:37;;;;;;;;;;;;;;;;;;4206444;28;43924;-77
2022/06/19 01:32:39;;;;;;;;;;;;;;;;;;4199986;28;43352;-77
2022/06/19 01:34:41;;;;;;;;;;;;;;;;;;4193435;28;42776;-77
2022/06/19 01:36:43;;;;;;;;;;;;;;;;;;4195089;28;43066;-76
2022/06/19 01:38:48;;;;;;;;;;;;;;;;;;4194545;28;44470;-76
2022/06/19 01:40:51;;;;;;;;;;;;;;;;;;4193346;28;44210;-77
2022/06/19 01:42:53;;;;;;;;;;;;;;;;;;4192353;28;42116;-77
2022/06/19 01:44:55;;;;;;;;;;;;;;;;;;4190560;28;43408;-76
2022/06/19 01:46:57;;;;;;;;;;;;;;;;;;4197605;28;44137;-79
2022/06/19 01:48:59;;;;;;;;;;;;;;;;;;4195263;28;43855;-76
2022/06/19 01:51:01;;;;;;;;;;;;;;;;;;4187918;28;43388;-77
2022/06/19 01:53:03;;;;;;;;;;;;;;;;;;4193334;28;42813;-77
2022/06/19 01:55:05;;;;;;;;;;;;;;;;;;4190285;28;43930;-77
2022/06/19 01:57:08;;;;;;;;;;;;;;;;;;4195949;28;44308;-76
2022/06/19 01:59:10;;;;;;;;;;;;;;;;;;4192106;28;43052;-77
2022/06/19 02:01:12;;;;;;;;;;;;;;;;;;4191657;28;42569;-77
2022/06/19 02:03:14;;;;;;;;;;;;;;;;;;4197993;28;44601;-77
2022/06/19 02:05:16;;;;;;;;;;;;;;;;;;4190536;28;43081;-77
2022/06/19 02:07:19;;;;;;;;;;;;;;;;;;4192777;28;42840;-76
2022/06/19 02:09:22;;;;;;;;;;;;;;;;;;4204509;28;42791;-77
2022/06/19 02:11:24;;;;;;;;;;;;;;;;;;4195211;28;42035;-77
2022/06/19 02:13:26;;;;;;;;;;;;;;;;;;4192277;28;42585;-77
2022/06/19 02:15:28;;;;;;;;;;;;;;;;;;4192366;28;41808;-77
2022/06/19 02:17:30;;;;;;;;;;;;;;;;;;4186659;28;42804;-77
2022/06/19 02:19:32;;;;;;;;;;;;;;;;;;4191987;28;43101;-77
2022/06/19 02:21:34;;;;;;;;;;;;;;;;;;4190869;28;43202;-77
2022/06/19 02:23:36;;;;;;;;;;;;;;;;;;4193302;28;44322;-78
2022/06/19 02:25:38;;;;;;;;;;;;;;;;;;4193330;28;44329;-77
2022/06/19 02:27:40;;;;;;;;;;;;;;;;;;4192240;28;43259;-77
2022/06/19 02:29:43;;;;;;;;;;;;;;;;;;4200247;28;44261;-78
2022/06/19 02:31:45;;;;;;;;;;;;;;;;;;4189351;28;41811;-78
2022/06/19 02:33:47;;;;;;;;;;;;;;;;;;4188299;28;43286;-78
2022/06/19 02:35:49;;;;;;;;;;;;;;;;;;4187311;28;43322;-78
2022/06/19 02:37:51;;;;;;;;;;;;;;;;;;4183446;28;43920;-77
2022/06/19 02:39:54;;;;;;;;;;;;;;;;;;4189230;28;42856;-77
2022/06/19 02:41:56;;;;;;;;;;;;;;;;;;4187930;28;42739;-77
2022/06/19 02:43:58;;;;;;;;;;;;;;;;;;4190842;28;44566;-77
2022/06/19 02:46:02;;;;;;;;;;;;;;;;;;4189559;28;44915;-77
2022/06/19 02:48:04;;;;;;;;;;;;;;;;;;4196914;28;43952;-77
2022/06/19 02:50:06;;;;;;;;;;;;;;;;;;4191237;28;44216;-77
2022/06/19 02:52:08;;;;;;;;;;;;;;;;;;4194477;28;42853;-76
2022/06/19 02:54:12;;;;;;;;;;;;;;;;;;4187349;28;42437;-77
2022/06/19 02:56:14;;;;;;;;;;;;;;;;;;4186537;28;44319;-77
2022/06/19 02:58:19;;;;;;;;;;;;;;;;;;4215988;28;44133;-78
2022/06/19 03:00:21;;;;;;;;;;;;;;;;;;4203566;28;43423;-78
2022/06/19 03:02:23;;;;;;;;;;;;;;;;;;4196045;28;43137;-78
2022/06/19 03:04:26;;;;;;;;;;;;;;;;;;4191227;28;43406;-78
2022/06/19 03:06:28;;;;;;;;;;;;;;;;;;4190322;28;44443;-79
2022/06/19 03:08:30;;;;;;;;;;;;;;;;;;4192712;28;43191;-78
2022/06/19 03:10:32;;;;;;;;;;;;;;;;;;4195079;28;43199;-79
2022/06/19 03:12:34;;;;;;;;;;;;;;;;;;4194212;28;42809;-78
2022/06/19 03:14:36;;;;;;;;;;;;;;;;;;4191472;28;43344;-77
2022/06/19 03:16:38;;;;;;;;;;;;;;;;;;4193122;28;44030;-77
2022/06/19 03:18:42;;;;;;;;;;;;;;;;;;4190481;28;44739;-77
2022/06/19 03:20:44;;;;;;;;;;;;;;;;;;4188058;28;43926;-77
2022/06/19 03:22:46;;;;;;;;;;;;;;;;;;4196092;28;42703;-79
2022/06/19 03:24:48;;;;;;;;;;;;;;;;;;4194852;28;44300;-79
2022/06/19 03:26:50;;;;;;;;;;;;;;;;;;4196047;28;43080;-80
2022/06/19 03:28:52;;;;;;;;;;;;;;;;;;4195414;28;43508;-80
2022/06/19 03:30:54;;;;;;;;;;;;;;;;;;4194038;28;43823;-77
2022/06/19 03:32:56;;;;;;;;;;;;;;;;;;4196099;28;42586;-79
2022/06/19 03:34:58;;;;;;;;;;;;;;;;;;4197567;28;43245;-76
2022/06/19 03:37:00;;;;;;;;;;;;;;;;;;4189839;28;44521;-77
2022/06/19 03:39:02;;;;;;;;;;;;;;;;;;4190652;28;44612;-77
2022/06/19 03:41:04;;;;;;;;;;;;;;;;;;4193135;28;42969;-77
2022/06/19 03:43:06;;;;;;;;;;;;;;;;;;4194554;28;43452;-77
2022/06/19 03:45:08;;;;;;;;;;;;;;;;;;4195951;28;43618;-78
2022/06/19 03:47:10;;;;;;;;;;;;;;;;;;4190116;28;43328;-77
2022/06/19 03:49:12;;;;;;;;;;;;;;;;;;4207511;28;43584;-75
2022/06/19 03:51:17;;;;;;;;;;;;;;;;;;4196380;28;44360;-77
2022/06/19 03:53:19;;;;;;;;;;;;;;;;;;4192138;28;43223;-77
2022/06/19 03:55:21;;;;;;;;;;;;;;;;;;4194986;28;43185;-76
2022/06/19 03:57:23;;;;;;;;;;;;;;;;;;4197191;28;42869;-76
2022/06/19 03:59:25;;;;;;;;;;;;;;;;;;4196868;28;42301;-76
2022/06/19 04:01:27;;;;;;;;;;;;;;;;;;4191884;28;41764;-77
2022/06/19 04:03:29;;;;;;;;;;;;;;;;;;4194994;28;44648;-77
2022/06/19 04:05:32;;;;;;;;;;;;;;;;;;4198627;28;45540;-77
2022/06/19 04:07:34;;;;;;;;;;;;;;;;;;4189071;28;42602;-77
2022/06/19 04:09:36;;;;;;;;;;;;;;;;;;4196342;28;43933;-77
2022/06/19 04:11:38;;;;;;;;;;;;;;;;;;4189026;28;44480;-77
2022/06/19 04:13:40;;;;;;;;;;;;;;;;;;4199640;28;43219;-77
2022/06/19 04:15:42;;;;;;;;;;;;;;;;;;4203071;28;42145;-77
2022/06/19 04:17:44;;;;;;;;;;;;;;;;;;4193024;28;44140;-76
2022/06/19 04:19:46;;;;;;;;;;;;;;;;;;4193291;28;42135;-77
2022/06/19 04:21:49;;;;;;;;;;;;;;;;;;4193497;28;42588;-77
2022/06/19 04:23:51;;;;;;;;;;;;;;;;;;4196632;28;44624;-76
2022/06/19 04:25:53;;;;;;;;;;;;;;;;;;4196960;28;43127;-78
2022/06/19 04:27:55;;;;;;;;;;;;;;;;;;4204381;28;44514;-76
2022/06/19 04:29:57;;;;;;;;;;;;;;;;;;4221780;28;42582;-76
2022/06/19 04:31:59;;;;;;;;;;;;;;;;;;4216310;28;43548;-76
2022/06/19 04:34:01;;;;;;;;;;;;;;;;;;4193318;28;43177;-77
2022/06/19 04:36:03;;;;;;;;;;;;;;;;;;4195292;28;44197;-77
2022/06/19 04:38:05;;;;;;;;;;;;;;;;;;4197697;28;43187;-77
2022/06/19 04:40:07;;;;;;;;;;;;;;;;;;4191001;28;43293;-76
2022/06/19 04:42:09;;;;;;;;;;;;;;;;;;4193542;28;41794;-77
2022/06/19 04:44:11;;;;;;;;;;;;;;;;;;4201064;28;44361;-76
2022/06/19 04:46:14;;;;;;;;;;;;;;;;;;4193726;28;42616;-76
2022/06/19 04:48:16;;;;;;;;;;;;;;;;;;4192008;28;41389;-76
2022/06/19 04:50:18;;;;;;;;;;;;;;;;;;4187372;28;42724;-76
2022/06/19 04:52:20;;;;;;;;;;;;;;;;;;4189338;28;42588;-76
2022/06/19 04:54:22;;;;;;;;;;;;;;;;;;4192740;28;41873;-77
2022/06/19 04:56:24;;;;;;;;;;;;;;;;;;4197038;28;43662;-79
2022/06/19 04:58:26;;;;;;;;;;;;;;;;;;4203889;28;41879;-78
2022/06/19 05:00:29;;;;;;;;;;;;;;;;;;4191378;28;44330;-79
2022/06/19 05:02:31;;;;;;;;;;;;;;;;;;4201326;28;43204;-79
2022/06/19 05:04:33;;;;;;;;;;;;;;;;;;4201978;28;44211;-79
2022/06/19 05:06:35;;;;;;;;;;;;;;;;;;4197679;28;44602;-78
2022/06/19 05:08:37;;;;;;;;;;;;;;;;;;4189355;28;43286;-79
2022/06/19 05:10:39;;;;;;;;;;;;;;;;;;4189969;28;42830;-80
2022/06/19 05:12:41;;;;;;;;;;;;;;;;;;4199981;28;43217;-80
2022/06/19 05:14:43;;;;;;;;;;;;;;;;;;4207425;28;44491;-78
2022/06/19 05:16:45;;;;;;;;;;;;;;;;;;4204254;28;44298;-80
2022/06/19 05:18:47;;;;;;;;;;;;;;;;;;4197932;28;43441;-79
2022/06/19 05:20:54;;;;;;;;;;;;;;;;;;4197978;28;43522;-79
2022/06/19 05:22:56;;;;;;;;;;;;;;;;;;4198232;28;43216;-80
2022/06/19 05:24:58;;;;;;;;;;;;;;;;;;4197156;28;44107;-79
2022/06/19 05:27:01;;;;;;;;;;;;;;;;;;4193569;28;42993;-79
2022/06/19 05:29:03;;;;;;;;;;;;;;;;;;4196628;28;43075;-79
2022/06/19 05:31:05;;;;;;;;;;;;;;;;;;4191978;28;44293;-79
2022/06/19 05:33:07;;;;;;;;;;;;;;;;;;4202473;28;43510;-81
2022/06/19 05:35:09;;;;;;;;;;;;;;;;;;4191695;28;44306;-81
2022/06/19 05:37:11;;;;;;;;;;;;;;;;;;4202828;28;43433;-81
2022/06/19 05:39:13;;;;;;;;;;;;;;;;;;4197252;28;43526;-78
2022/06/19 05:41:15;;;;;;;;;;;;;;;;;;4198196;28;41322;-77
2022/06/19 05:43:17;;;;;;;;;;;;;;;;;;4202427;28;43443;-78
2022/06/19 05:45:19;;;;;;;;;;;;;;;;;;4204665;28;44184;-79
2022/06/19 05:47:22;;;;;;;;;;;;;;;;;;4191829;28;43036;-78
2022/06/19 05:49:24;;;;;;;;;;;;;;;;;;4189839;28;44577;-76
2022/06/19 05:51:26;;;;;;;;;;;;;;;;;;4192536;28;42423;-76
2022/06/19 05:53:28;;;;;;;;;;;;;;;;;;4195311;28;44353;-76
2022/06/19 05:55:30;;;;;;;;;;;;;;;;;;4203404;28;42178;-76
2022/06/19 05:57:32;;;;;;;;;;;;;;;;;;4191342;28;45188;-76
2022/06/19 05:59:39;;;;;;;;;;;;;;;;;;4204060;28;44894;-76
2022/06/19 06:01:44;;;;;;;;;;;;;;;;;;4223209;28;42291;-75
2022/06/19 06:03:47;;;;;;;;;;;;;;;;;;4210660;28;45350;-77
2022/06/19 06:05:49;;;;;;;;;;;;;;;;;;4200633;28;42139;-76
2022/06/19 06:07:51;;;;;;;;;;;;;;;;;;4197156;28;41684;-77
2022/06/19 06:09:53;;;;;;;;;;;;;;;;;;4196122;28;43086;-77
2022/06/19 06:11:55;;;;;;;;;;;;;;;;;;4194418;28;44511;-77
2022/06/19 06:13:57;;;;;;;;;;;;;;;;;;4199086;28;43100;-77
2022/06/19 06:15:59;;;;;;;;;;;;;;;;;;4199346;28;43856;-77
2022/06/19 06:18:02;;;;;;;;;;;;;;;;;;4206281;28;42844;-76
2022/06/19 06:20:04;;;;;;;;;;;;;;;;;;4198476;28;41767;-77
2022/06/19 06:22:06;;;;;;;;;;;;;;;;;;4197717;28;41805;-76
2022/06/19 06:24:10;;;;;;;;;;;;;;;;;;4198615;28;41880;-77
2022/06/19 06:26:16;;;;;;;;;;;;;;;;;;4189425;28;41802;-77
2022/06/19 06:28:21;;;;;;;;;;;;;;;;;;4213826;28;40642;-76
2022/06/19 06:30:23;;;;;;;;;;;;;;;;;;4189310;28;42404;-76
2022/06/19 06:32:25;;;;;;;;;;;;;;;;;;4200222;28;44636;-76
2022/06/19 06:34:27;;;;;;;;;;;;;;;;;;4201926;28;43794;-76
2022/06/19 06:36:29;;;;;;;;;;;;;;;;;;4192678;28;45993;-76
2022/06/19 06:38:31;;;;;;;;;;;;;;;;;;4202204;28;42651;-76
2022/06/19 06:40:34;;;;;;;;;;;;;;;;;;4191736;28;43195;-77
2022/06/19 06:42:36;;;;;;;;;;;;;;;;;;4194757;28;43028;-77
2022/06/19 06:44:38;;;;;;;;;;;;;;;;;;4197577;28;43889;-76
2022/06/19 06:46:41;;;;;;;;;;;;;;;;;;4196836;28;44306;-77
2022/06/19 06:48:43;;;;;;;;;;;;;;;;;;4199699;28;43257;-77
2022/06/19 06:50:46;;;;;;;;;;;;;;;;;;4198961;28;43317;-75
2022/06/19 06:52:51;;;;;;;;;;;;;;;;;;4192396;28;42433;-76
2022/06/19 06:54:53;;;;;;;;;;;;;;;;;;4193152;28;43211;-76
2022/06/19 06:56:55;;;;;;;;;;;;;;;;;;4195456;28;43202;-76
2022/06/19 06:59:01;;;;;;;;;;;;;;;;;;4200274;28;43386;-77
2022/06/19 07:01:04;;;;;;;;;;;;;;;;;;4194514;28;44559;-77
2022/06/19 07:03:18;;;;;;;;;;;;;;;;;;4209144;28;44090;-77
2022/06/19 07:05:20;;;;;;;;;;;;;;;;;;4202125;28;42724;-77
2022/06/19 07:07:22;;;;;;;;;;;;;;;;;;4196085;28;43619;-77
2022/06/19 07:09:24;;;;;;;;;;;;;;;;;;4197210;28;43204;-78
2022/06/19 07:11:26;;;;;;;;;;;;;;;;;;4195856;28;43329;-77
2022/06/19 07:13:28;;;;;;;;;;;;;;;;;;4191260;28;44449;-80
2022/06/19 07:15:32;;;;;;;;;;;;;;;;;;4197634;28;43373;-80
2022/06/19 07:17:34;;;;;;;;;;;;;;;;;;4197397;28;42867;-80
2022/06/19 07:19:36;;;;;;;;;;;;;;;;;;4201170;28;41822;-81
2022/06/19 07:21:38;;;;;;;;;;;;;;;;;;4201024;28;43359;-80
2022/06/19 07:23:40;;;;;;;;;;;;;;;;;;4199890;28;43888;-78
2022/06/19 07:25:42;;;;;;;;;;;;;;;;;;4207494;28;44296;-80
2022/06/19 07:27:44;;;;;;;;;;;;;;;;;;4214430;28;43031;-79
2022/06/19 07:29:46;;;;;;;;;;;;;;;;;;4203223;28;41742;-78
2022/06/19 07:31:48;;;;;;;;;;;;;;;;;;4203968;28;44431;-79
2022/06/19 07:33:50;;;;;;;;;;;;;;;;;;4198317;28;44155;-80
2022/06/19 07:35:52;;;;;;;;;;;;;;;;;;4202070;28;43359;-77
2022/06/19 07:37:54;;;;;;;;;;;;;;;;;;4195815;28;44459;-77
2022/06/19 07:39:57;;;;;;;;;;;;;;;;;;4194308;28;43131;-77
2022/06/19 07:41:59;;;;;;;;;;;;;;;;;;4195668;28;42553;-76
2022/06/19 07:44:01;;;;;;;;;;;;;;;;;;4194020;28;43045;-77
2022/06/19 07:46:03;;;;;;;;;;;;;;;;;;4194854;28;43391;-77
2022/06/19 07:50:28;;;;;;;;;;;;;;;;;;4193191;28;43090;-76
2022/06/19 07:52:30;;;;;;;;;;;;;;;;;;4196798;28;43070;-76
2022/06/19 07:54:32;;;;;;;;;;;;;;;;;;4196334;28;44319;-76
2022/06/19 07:56:34;;;;;;;;;;;;;;;;;;4190137;28;43409;-77
2022/06/19 07:58:36;;;;;;;;;;;;;;;;;;4196724;28;42587;-76
2022/06/19 08:00:38;;;;;;;;;;;;;;;;;;4197227;28;43061;-77
2022/06/19 08:02:41;;;;;;;;;;;;;;;;;;4194692;28;44200;-77
2022/06/19 08:04:43;;;;;;;;;;;;;;;;;;4211497;28;42538;-77
2022/06/19 08:06:46;;;;;;;;;;;;;;;;;;4199461;28;44441;-76
2022/06/19 08:08:48;;;;;;;;;;;;;;;;;;4195509;28;41977;-77
2022/06/19 08:10:50;;;;;;;;;;;;;;;;;;4194668;28;43202;-76
2022/06/19 08:12:53;;;;;;;;;;;;;;;;;;4198100;28;42074;-75
2022/06/19 08:14:55;;;;;;;;;;;;;;;;;;4198832;28;43431;-75
2022/06/19 08:16:57;;;;;;;;;;;;;;;;;;4197492;28;43401;-76
2022/06/19 08:18:59;;;;;;;;;;;;;;;;;;4200174;28;41603;-76
2022/06/19 08:21:02;;;;;;;;;;;;;;;;;;4188402;28;44509;-75
2022/06/19 08:23:05;;;;;;;;;;;;;;;;;;4207790;28;43189;-75
2022/06/19 08:25:07;;;;;;;;;;;;;;;;;;4201436;28;43522;-75
2022/06/19 08:27:09;;;;;;;;;;;;;;;;;;4186748;28;41734;-75
2022/06/19 08:29:11;;;;;;;;;;;;;;;;;;4192367;28;44215;-75
2022/06/19 08:31:13;;;;;;;;;;;;;;;;;;4189702;28;42743;-75
2022/06/19 08:33:15;;;;;;;;;;;;;;;;;;4200532;28;43512;-75
2022/06/19 08:35:17;;;;;;;;;;;;;;;;;;4197626;28;41712;-76
2022/06/19 08:37:19;;;;;;;;;;;;;;;;;;4204043;28;44876;-75
2022/06/19 08:39:22;;;;;;;;;;;;;;;;;;4197086;28;43191;-74
2022/06/19 08:41:24;;;;;;;;;;;;;;;;;;4198405;28;43771;-76
2022/06/19 08:43:26;;;;;;;;;;;;;;;;;;4196104;28;43643;-77
2022/06/19 08:45:28;;;;;;;;;;;;;;;;;;4197196;28;43639;-77
2022/06/19 08:47:30;;;;;;;;;;;;;;;;;;4193177;28;42145;-76
2022/06/19 08:49:32;;;;;;;;;;;;;;;;;;4198091;28;43056;-76
2022/06/19 08:51:34;;;;;;;;;;;;;;;;;;4202655;28;43066;-74
2022/06/19 08:53:36;;;;;;;;;;;;;;;;;;4195510;28;43005;-76
2022/06/19 08:55:38;;;;;;;;;;;;;;;;;;4186717;28;43459;-78
2022/06/19 08:57:40;;;;;;;;;;;;;;;;;;4195241;28;44177;-76
2022/06/19 08:59:42;;;;;;;;;;;;;;;;;;4198830;28;43407;-76
2022/06/19 09:01:46;;;;;;;;;;;;;;;;;;4194318;28;43363;-78
2022/06/19 09:06:08;;;;;;;;;;;;;;;;;;4203470;28;43536;-76
2022/06/19 09:08:10;;;;;;;;;;;;;;;;;;4190095;28;44261;-75
2022/06/19 09:10:12;;;;;;;;;;;;;;;;;;4196493;28;41965;-78
2022/06/19 09:12:14;;;;;;;;;;;;;;;;;;4189643;28;44163;-76
2022/06/19 09:14:17;;;;;;;;;;;;;;;;;;4188855;28;44568;-76
2022/06/19 09:16:19;;;;;;;;;;;;;;;;;;4192887;28;43286;-75
2022/06/19 09:18:21;;;;;;;;;;;;;;;;;;4193173;28;42501;-75
2022/06/19 09:20:23;;;;;;;;;;;;;;;;;;4209052;28;40906;-75
2022/06/19 09:22:26;;;;;;;;;;;;;;;;;;4202930;28;43224;-75
2022/06/19 09:24:28;;;;;;;;;;;;;;;;;;4194361;28;44219;-76
2022/06/19 09:26:30;;;;;;;;;;;;;;;;;;4198652;28;43047;-76
2022/06/19 09:28:32;;;;;;;;;;;;;;;;;;4194810;28;43088;-76
2022/06/19 09:30:34;;;;;;;;;;;;;;;;;;4191897;28;43313;-75
2022/06/19 09:32:36;;;;;;;;;;;;;;;;;;4193906;28;44333;-76
2022/06/19 09:34:58;;;;;;;;;;;;;;;;;;4198854;28;20002;-75
2022/06/19 09:37:00;;;;;;;;;;;;;;;;;;4194039;28;43106;-75
2022/06/19 09:39:02;;;;;;;;;;;;;;;;;;4192090;28;43784;-75
2022/06/19 09:41:04;;;;;;;;;;;;;;;;;;4192727;28;43391;-74
2022/06/19 09:43:06;;;;;;;;;;;;;;;;;;4198062;28;43368;-76
2022/06/19 09:45:08;;;;;;;;;;;;;;;;;;4198374;28;44232;-75
2022/06/19 09:47:10;;;;;;;;;;;;;;;;;;4194972;28;42789;-75
2022/06/19 09:49:12;;;;;;;;;;;;;;;;;;4200972;28;44783;-76
2022/06/19 09:51:14;;;;;;;;;;;;;;;;;;4194580;28;44278;-75
2022/06/19 09:53:16;;;;;;;;;;;;;;;;;;4194419;28;42747;-76
2022/06/19 09:55:36;;;;;;;;;;;;;;;;;;4189456;28;44471;-75
2022/06/19 09:57:38;;;;;;;;;;;;;;;;;;4199318;28;43212;-75
2022/06/19 09:59:41;;;;;;;;;;;;;;;;;;4194840;28;43198;-75
2022/06/19 10:01:43;;;;;;;;;;;;;;;;;;4188406;28;43336;-75
2022/06/19 10:03:45;;;;;;;;;;;;;;;;;;4200313;28;41876;-75
2022/06/19 10:05:47;;;;;;;;;;;;;;;;;;4190180;28;43510;-75
2022/06/19 10:07:51;;;;;;;;;;;;;;;;;;4190351;28;43200;-73
2022/06/19 10:09:54;;;;;;;;;;;;;;;;;;4201435;28;43202;-75
2022/06/19 10:11:56;;;;;;;;;;;;;;;;;;4201251;28;42513;-77
2022/06/19 10:13:58;;;;;;;;;;;;;;;;;;4192234;28;43567;-76
2022/06/19 10:16:00;;;;;;;;;;;;;;;;;;4201937;28;42874;-76
2022/06/19 10:18:02;;;;;;;;;;;;;;;;;;4202093;28;43887;-75
2022/06/19 10:20:04;;;;;;;;;;;;;;;;;;4198444;28;41723;-75
2022/06/19 10:22:16;;;;;;;;;;;;;;;;;;4197892;28;43557;-74
2022/06/19 10:24:21;;;;;;;;;;;;;;;;;;4195018;28;42978;-75
2022/06/19 10:26:23;;;;;;;;;;;;;;;;;;4202651;28;43199;-76
2022/06/19 10:28:25;;;;;;;;;;;;;;;;;;4206076;28;43409;-75
2022/06/19 10:30:27;;;;;;;;;;;;;;;;;;4195132;28;43535;-76
2022/06/19 10:32:29;;;;;;;;;;;;;;;;;;4197571;28;41855;-75
2022/06/19 10:34:31;;;;;;;;;;;;;;;;;;4190732;28;44449;-74
2022/06/19 10:36:34;;;;;;;;;;;;;;;;;;4196769;28;42784;-76
2022/06/19 10:38:44;;;;;;;;;;;;;;;;;;4199388;28;43342;-74
2022/06/19 10:40:46;;;;;;;;;;;;;;;;;;4193214;28;42820;-75
2022/06/19 10:42:48;;;;;;;;;;;;;;;;;;4200198;28;43151;-76
2022/06/19 10:44:50;;;;;;;;;;;;;;;;;;4194555;28;41732;-75
2022/06/19 10:46:52;;;;;;;;;;;;;;;;;;4193487;28;42963;-75
2022/06/19 10:48:54;;;;;;;;;;;;;;;;;;4191160;28;44599;-75
2022/06/19 10:50:56;;;;;;;;;;;;;;;;;;4194858;28;43325;-75
2022/06/19 10:52:58;;;;;;;;;;;;;;;;;;4200332;28;42780;-75
2022/06/19 10:55:00;;;;;;;;;;;;;;;;;;4199787;28;42140;-77
2022/06/19 10:57:02;;;;;;;;;;;;;;;;;;4202057;28;43032;-75
2022/06/19 10:59:04;;;;;;;;;;;;;;;;;;4195754;28;41729;-75
2022/06/19 11:01:06;;;;;;;;;;;;;;;;;;4196085;28;43940;-75
2022/06/19 11:05:30;;;;;;;;;;;;;;;;;;4194502;28;42858;-75
2022/06/19 11:07:32;;;;;;;;;;;;;;;;;;4193489;28;44123;-75
2022/06/19 11:09:35;;;;;;;;;;;;;;;;;;4187388;28;44599;-75
2022/06/19 11:11:37;;;;;;;;;;;;;;;;;;4193708;28;44465;-77
2022/06/19 11:13:39;;;;;;;;;;;;;;;;;;4195292;28;44568;-78
2022/06/19 11:15:43;;;;;;;;;;;;;;;;;;4196506;28;44342;-76
2022/06/19 11:17:45;;;;;;;;;;;;;;;;;;4205940;28;43435;-74
2022/06/19 11:19:47;;;;;;;;;;;;;;;;;;4198555;28;43875;-75
2022/06/19 11:21:49;;;;;;;;;;;;;;;;;;4200526;28;42549;-75
2022/06/19 11:23:51;;;;;;;;;;;;;;;;;;4192517;28;44774;-77
2022/06/19 11:25:53;;;;;;;;;;;;;;;;;;4201127;28;43649;-76
2022/06/19 11:27:56;;;;;;;;;;;;;;;;;;4195007;28;42847;-77
2022/06/19 11:29:59;;;;;;;;;;;;;;;;;;4196466;28;43109;-76
2022/06/19 11:32:01;;;;;;;;;;;;;;;;;;4195621;28;44241;-75
2022/06/19 11:34:43;;;;;;;;;;;;;;;;;;4193023;28;44387;-75
2022/06/19 11:36:25;;;;;;;;;;;;;;;;;;4194950;28;42706;-76
2022/06/19 11:38:27;;;;;;;;;;;;;;;;;;4203938;28;44167;-77
2022/06/19 11:40:29;;;;;;;;;;;;;;;;;;4186493;28;44714;-76
2022/06/19 11:42:32;;;;;;;;;;;;;;;;;;4192222;28;43353;-76
2022/06/19 11:44:34;;;;;;;;;;;;;;;;;;4192887;28;43232;-79
2022/06/19 11:46:36;;;;;;;;;;;;;;;;;;4193134;28;43230;-78
2022/06/19 11:48:38;;;;;;;;;;;;;;;;;;4198581;28;43354;-75
2022/06/19 11:50:40;;;;;;;;;;;;;;;;;;4197243;28;43068;-78
2022/06/19 11:52:42;;;;;;;;;;;;;;;;;;4194234;28;44334;-76
2022/06/19 11:54:44;;;;;;;;;;;;;;;;;;4199880;28;41427;-78
2022/06/19 11:56:46;;;;;;;;;;;;;;;;;;4203790;28;42780;-75
2022/06/19 11:58:48;;;;;;;;;;;;;;;;;;4196547;28;43353;-78
2022/06/19 12:00:50;;;;;;;;;;;;;;;;;;4199734;28;44249;-80
2022/06/19 12:02:54;;;;;;;;;;;;;;;;;;4201300;28;43657;-76
2022/06/19 12:04:56;;;;;;;;;;;;;;;;;;4198799;28;43421;-77
2022/06/19 12:06:58;;;;;;;;;;;;;;;;;;4197674;28;43705;-76
2022/06/19 12:09:00;;;;;;;;;;;;;;;;;;4201515;28;44459;-76
2022/06/19 12:11:02;;;;;;;;;;;;;;;;;;4216622;28;43204;-77
2022/06/19 12:13:04;;;;;;;;;;;;;;;;;;4212191;28;40917;-76
2022/06/19 12:15:06;;;;;;;;;;;;;;;;;;4203256;28;43088;-76
2022/06/19 12:17:08;;;;;;;;;;;;;;;;;;4200951;28;43639;-75
2022/06/19 12:19:10;;;;;;;;;;;;;;;;;;4202591;28;42492;-76
2022/06/19 12:21:12;;;;;;;;;;;;;;;;;;4208284;28;44383;-77
2022/06/19 12:23:14;;;;;;;;;;;;;;;;;;4201526;28;44188;-76
2022/06/19 12:25:16;;;;;;;;;;;;;;;;;;4207897;28;43481;-77
2022/06/19 12:27:18;;;;;;;;;;;;;;;;;;4196618;28;43222;-77
2022/06/19 12:29:21;;;;;;;;;;;;;;;;;;4194477;28;44940;-77
2022/06/19 12:31:23;;;;;;;;;;;;;;;;;;4192624;28;43646;-76
2022/06/19 12:33:25;;;;;;;;;;;;;;;;;;4198287;28;43716;-76
2022/06/19 12:35:27;;;;;;;;;;;;;;;;;;4189215;28;44375;-77
2022/06/19 12:37:30;;;;;;;;;;;;;;;;;;4201230;28;43359;-76
2022/06/19 12:39:32;;;;;;;;;;;;;;;;;;4197610;28;44608;-78
2022/06/19 12:41:34;;;;;;;;;;;;;;;;;;4193952;28;43663;-76
2022/06/19 12:43:36;;;;;;;;;;;;;;;;;;4201367;28;43071;-77
2022/06/19 12:45:38;;;;;;;;;;;;;;;;;;4190758;28;42535;-78
2022/06/19 12:47:40;;;;;;;;;;;;;;;;;;4196925;28;43038;-77
2022/06/19 12:49:42;;;;;;;;;;;;;;;;;;4193817;28;43644;-78
2022/06/19 12:51:44;;;;;;;;;;;;;;;;;;4192868;28;43229;-76
2022/06/19 12:53:46;;;;;;;;;;;;;;;;;;4196130;28;41607;-77
2022/06/19 12:55:51;;;;;;;;;;;;;;;;;;4185788;28;43490;-76
2022/06/19 12:57:54;;;;;;;;;;;;;;;;;;4195195;28;43195;-77
2022/06/19 12:59:56;;;;;;;;;;;;;;;;;;4198716;28;42883;-77
2022/06/19 13:01:58;;;;;;;;;;;;;;;;;;4194376;28;40814;-79
2022/06/19 13:04:00;;;;;;;;;;;;;;;;;;4194167;28;43214;-76
2022/06/19 13:06:03;;;;;;;;;;;;;;;;;;4195575;28;43480;-76
2022/06/19 13:08:05;;;;;;;;;;;;;;;;;;4208719;28;41729;-77
2022/06/19 13:10:07;;;;;;;;;;;;;;;;;;4191487;28;43067;-77
2022/06/19 13:12:09;;;;;;;;;;;;;;;;;;4196455;28;44161;-77
2022/06/19 13:14:16;;;;;;;;;;;;;;;;;;4204212;28;43524;-76
2022/06/19 13:16:18;;;;;;;;;;;;;;;;;;4198329;28;43195;-76
2022/06/19 13:18:20;;;;;;;;;;;;;;;;;;4193178;28;43102;-77
2022/06/19 13:20:27;;;;;;;;;;;;;;;;;;4200155;28;41732;-77
2022/06/19 13:22:30;;;;;;;;;;;;;;;;;;4197398;28;44434;-77
2022/06/19 13:24:32;;;;;;;;;;;;;;;;;;4202769;28;43288;-77
2022/06/19 13:28:54;;;;;;;;;;;;;;;;;;4192430;28;44388;-75
2022/06/19 13:30:56;;;;;;;;;;;;;;;;;;4186738;28;43961;-76
2022/06/19 13:32:58;;;;;;;;;;;;;;;;;;4198780;28;44464;-78
2022/06/19 13:35:01;;;;;;;;;;;;;;;;;;4198039;28;43024;-76
2022/06/19 13:37:03;;;;;;;;;;;;;;;;;;4199452;28;42837;-78
2022/06/19 13:39:05;;;;;;;;;;;;;;;;;;4206982;28;43207;-78
2022/06/19 13:41:07;;;;;;;;;;;;;;;;;;4198302;28;44122;-78
2022/06/19 13:43:09;;;;;;;;;;;;;;;;;;4195105;28;43062;-78
2022/06/19 13:45:11;;;;;;;;;;;;;;;;;;4192110;28;43398;-76
2022/06/19 13:47:13;;;;;;;;;;;;;;;;;;4191695;28;42780;-78
2022/06/19 13:49:15;;;;;;;;;;;;;;;;;;4205531;28;44142;-78
2022/06/19 13:51:17;;;;;;;;;;;;;;;;;;4190904;28;42837;-80
2022/06/19 13:53:19;;;;;;;;;;;;;;;;;;4196429;28;41765;-78
2022/06/19 13:55:21;;;;;;;;;;;;;;;;;;4187025;28;42624;-78
2022/06/19 13:57:23;;;;;;;;;;;;;;;;;;4204085;28;41148;-77
2022/06/19 13:59:25;;;;;;;;;;;;;;;;;;4193948;28;43203;-76
2022/06/19 14:01:27;;;;;;;;;;;;;;;;;;4196815;28;42738;-78
2022/06/19 14:04:45;;;;;;;;;;;;;;;;;;4191984;28;43073;-78
2022/06/19 14:05:52;;;;;;;;;;;;;;;;;;4192204;28;43537;-77
2022/06/19 14:07:54;;;;;;;;;;;;;;;;;;4188395;28;44136;-77